Shemah Yisrael!
Hear, O Israel: the LORD our God, the LORD is one.
You shall love the LORD your God with all your heart and with all your soul and with all your might.
(Deuteronomy 6:4-5)
Houston / Ellington, TX, United States (KEFD) 29-36N 095-10W
Mar 08, 2021 - 03:50 PM EST / 2021.03.08 2050 UTC
Wind: from the E (080 degrees) at 16 MPH (14 KT):0
Visibility: 10 mile(s):0
Sky conditions: partly cloudy
Temperature: 68 F (20 C)
Dew Point: 51 F (11 C)
Relative Humidity: 56%
Pressure (altimeter): 30.4 in. Hg (1029 hPa)
ob: KEFD 082050Z 08014KT 10SM SCT045 20/11 A3040 
cycle: 21
w e b m a s t e r   a t   s h e m a h   d o t   n e t